Time;durP1;ratioP1;P1;durP2;ratioP2;P2;SDS_P1;SDS_P2;PMS_P1;PMS_P2;Temp;Humidity;BMP_temperature;BMP_pressure;BME280_temperature;BME280_humidity;BME280_pressure;Samples;Min_cycle;Max_cycle;Signal;HPM_P1;HPM_P2
2022/12/28 00:01:22;;;;;;;1.75;1.00;;;5.50;99.90;;;;;;4896887;29;20106;-82
2022/12/28 00:03:49;;;;;;;3.22;1.20;;;5.50;99.90;;;;;;4890943;29;20045;-80
2022/12/28 00:06:16;;;;;;;1.98;1.02;;;5.60;99.90;;;;;;4881569;29;20051;-81
2022/12/28 00:08:43;;;;;;;2.05;1.10;;;5.60;99.90;;;;;;4890647;29;20471;-82
2022/12/28 00:11:13;;;;;;;0.93;0.82;;;5.60;99.90;;;;;;4884352;29;20051;-81
2022/12/28 00:13:55;;;;;;;1.17;1.00;;;5.60;99.90;;;;;;4892760;29;20144;-82
2022/12/28 00:16:31;;;;;;;2.63;1.08;;;5.60;99.90;;;;;;4884665;29;20063;-82
2022/12/28 00:19:01;;;;;;;1.45;0.70;;;5.70;99.90;;;;;;4889356;29;20480;-83
2022/12/28 00:21:28;;;;;;;2.05;0.88;;;5.70;99.90;;;;;;4901041;29;20144;-82
2022/12/28 00:23:57;;;;;;;3.80;1.00;;;5.70;99.90;;;;;;4899469;29;20092;-82
2022/12/28 00:26:26;;;;;;;3.92;1.08;;;5.70;99.90;;;;;;4896243;29;20056;-82
2022/12/28 00:28:52;;;;;;;3.15;1.00;;;5.70;99.90;;;;;;4893273;29;20073;-82
2022/12/28 00:31:29;;;;;;;1.52;0.77;;;5.80;99.90;;;;;;4891226;29;20052;-83
2022/12/28 00:33:56;;;;;;;2.47;1.02;;;5.80;99.90;;;;;;4896910;29;20502;-82
2022/12/28 00:36:23;;;;;;;2.80;2.13;;;5.80;99.90;;;;;;4894799;29;20061;-82
2022/12/28 00:39:10;;;;;;;3.92;0.80;;;5.80;99.90;;;;;;4897274;29;20534;-82
2022/12/28 00:41:36;;;;;;;3.30;1.20;;;5.80;99.90;;;;;;4898975;29;20060;-82
2022/12/28 00:44:03;;;;;;;1.67;0.85;;;5.80;99.90;;;;;;4900337;29;20112;-82
2022/12/28 00:46:30;;;;;;;3.95;0.85;;;5.90;99.90;;;;;;4895776;29;20095;-81
2022/12/28 00:48:57;;;;;;;3.10;0.77;;;5.90;99.90;;;;;;4891644;29;20049;-81
2022/12/28 00:51:23;;;;;;;1.20;0.70;;;6.00;99.90;;;;;;4895225;29;20066;-82
2022/12/28 00:53:50;;;;;;;1.20;0.82;;;6.00;99.90;;;;;;4892629;29;20057;-82
2022/12/28 00:56:19;;;;;;;1.33;0.60;;;6.00;99.90;;;;;;4891721;29;20075;-82
2022/12/28 00:58:46;;;;;;;5.35;0.95;;;6.00;99.90;;;;;;4891957;29;20512;-82
2022/12/28 01:01:16;;;;;;;2.38;0.65;;;6.10;99.90;;;;;;4895995;29;20056;-82
2022/12/28 01:03:43;;;;;;;1.00;0.90;;;6.10;99.90;;;;;;4896696;29;20045;-82
2022/12/28 01:06:11;;;;;;;2.00;0.70;;;6.20;99.90;;;;;;4887891;29;20045;-82
2022/12/28 01:08:39;;;;;;;3.80;0.80;;;6.20;99.90;;;;;;4892160;29;20053;-82
2022/12/28 01:11:11;;;;;;;1.63;0.45;;;6.20;99.90;;;;;;4900672;29;20049;-81
2022/12/28 01:13:38;;;;;;;2.30;0.80;;;6.30;99.90;;;;;;4901103;29;20061;-82
2022/12/28 01:16:11;;;;;;;1.75;0.70;;;6.30;99.90;;;;;;4892407;29;20052;-80
2022/12/28 01:18:38;;;;;;;0.90;0.60;;;6.30;99.90;;;;;;4897417;29;20065;-81
2022/12/28 01:21:25;;;;;;;1.90;0.70;;;6.40;99.90;;;;;;4891847;29;20053;-82
2022/12/28 01:23:54;;;;;;;3.97;0.65;;;6.40;99.90;;;;;;4898658;29;20053;-82
2022/12/28 01:26:21;;;;;;;3.03;0.65;;;6.50;99.90;;;;;;4893274;29;20053;-82
2022/12/28 01:28:48;;;;;;;2.83;0.85;;;6.50;99.90;;;;;;4892784;29;20072;-82
2022/12/28 01:31:17;;;;;;;0.57;0.40;;;6.50;99.90;;;;;;4891293;29;20045;-82
2022/12/28 01:33:44;;;;;;;3.25;0.50;;;6.60;99.90;;;;;;4892252;29;20060;-83
2022/12/28 01:36:20;;;;;;;1.50;0.68;;;6.60;99.90;;;;;;4892999;29;20435;-82
2022/12/28 01:38:47;;;;;;;2.22;0.63;;;6.70;99.90;;;;;;4887070;29;20522;-82
2022/12/28 01:41:17;;;;;;;0.77;0.50;;;6.70;99.90;;;;;;4894054;29;20527;-82
2022/12/28 01:43:43;;;;;;;2.60;0.47;;;6.70;99.90;;;;;;4885505;29;20139;-82
2022/12/28 01:46:17;;;;;;;2.63;0.63;;;6.70;99.90;;;;;;4891461;29;20048;-81
2022/12/28 01:48:52;;;;;;;2.50;0.50;;;6.70;99.90;;;;;;4900876;29;20081;-82
2022/12/28 01:51:20;;;;;;;3.20;0.68;;;6.80;99.90;;;;;;4891676;29;20056;-82
2022/12/28 01:53:51;;;;;;;0.60;0.50;;;6.80;99.90;;;;;;4900066;29;20057;-83
2022/12/28 01:56:18;;;;;;;4.90;0.60;;;6.90;99.90;;;;;;4883379;29;20057;-81
2022/12/28 01:58:46;;;;;;;1.48;0.80;;;6.90;99.90;;;;;;4884173;29;20053;-82
2022/12/28 02:01:12;;;;;;;2.05;0.68;;;6.90;99.90;;;;;;4890879;29;20064;-82
2022/12/28 02:03:40;;;;;;;3.22;0.68;;;6.90;99.90;;;;;;4890938;29;20475;-82
2022/12/28 02:06:10;;;;;;;1.08;0.50;;;7.00;99.90;;;;;;4895362;29;20121;-83
2022/12/28 02:09:15;;;;;;;2.28;0.70;;;7.00;99.90;;;;;;4886441;29;20072;-82
2022/12/28 02:11:42;;;;;;;2.30;0.77;;;7.10;99.90;;;;;;4892661;29;20063;-82
2022/12/28 02:14:11;;;;;;;1.38;0.60;;;7.00;99.90;;;;;;4900680;29;20435;-81
2022/12/28 02:16:38;;;;;;;3.15;0.60;;;7.00;99.90;;;;;;4893129;29;20506;-82
2022/12/28 02:19:07;;;;;;;2.00;0.50;;;7.00;99.90;;;;;;4890508;29;20511;-82
2022/12/28 02:21:54;;;;;;;1.52;0.60;;;7.00;99.90;;;;;;4895276;29;20056;-83
2022/12/28 02:24:55;;;;;;;1.35;0.60;;;7.00;99.90;;;;;;4899348;29;20521;-82
2022/12/28 02:28:10;;;;;;;0.65;0.50;;;7.00;99.90;;;;;;4896266;29;20049;-81
2022/12/28 02:30:45;;;;;;;2.33;0.70;;;7.00;99.90;;;;;;4912110;29;20065;-82
2022/12/28 02:33:22;;;;;;;2.05;0.65;;;7.00;99.90;;;;;;4904786;29;20118;-81
2022/12/28 02:36:07;;;;;;;1.35;0.50;;;7.00;99.90;;;;;;4901260;29;20096;-82
2022/12/28 02:38:50;;;;;;;0.50;0.50;;;7.00;99.90;;;;;;4887170;29;20068;-83
2022/12/28 02:41:23;;;;;;;1.42;0.75;;;7.00;99.90;;;;;;4887518;29;20048;-82
2022/12/28 02:43:51;;;;;;;1.45;0.45;;;6.90;99.90;;;;;;4897578;29;20048;-81
2022/12/28 02:52:13;;;;;;;0.82;0.40;;;6.90;99.90;;;;;;4894721;29;20088;-81
2022/12/28 02:57:55;;;;;;;1.27;0.60;;;7.00;99.90;;;;;;4893197;29;20056;-82
2022/12/28 03:00:25;;;;;;;2.95;0.68;;;7.00;99.90;;;;;;4887137;29;20523;-81
2022/12/28 03:02:58;;;;;;;1.23;0.47;;;7.10;99.90;;;;;;4890939;29;20504;-82
2022/12/28 03:08:46;;;;;;;1.10;0.63;;;7.30;99.90;;;;;;4889408;29;20045;-82
2022/12/28 03:11:19;;;;;;;1.38;0.65;;;7.30;99.90;;;;;;4877524;29;20060;-81
2022/12/28 03:14:01;;;;;;;2.50;0.77;;;7.40;99.90;;;;;;4901495;29;20048;-81
2022/12/28 03:25:41;;;;;;;3.70;0.60;;;7.40;99.90;;;;;;4899988;29;20065;-81
2022/12/28 03:31:07;;;;;;;0.88;0.50;;;7.70;99.90;;;;;;4897048;29;20061;-81
2022/12/28 03:33:46;;;;;;;5.53;0.82;;;7.70;99.90;;;;;;4891128;29;20135;-81
2022/12/28 03:36:27;;;;;;;1.35;0.57;;;7.70;99.90;;;;;;4890426;29;20072;-81
2022/12/28 03:39:09;;;;;;;2.05;0.52;;;7.70;99.90;;;;;;4889657;29;20060;-80
2022/12/28 03:44:53;;;;;;;2.20;0.40;;;7.70;99.90;;;;;;4893109;29;20048;-80
2022/12/28 03:47:22;;;;;;;1.55;0.38;;;7.80;99.90;;;;;;4892715;29;20055;-81
2022/12/28 03:49:49;;;;;;;1.60;0.60;;;7.70;99.90;;;;;;4899747;29;20063;-81
2022/12/28 03:52:16;;;;;;;1.38;0.60;;;7.70;99.90;;;;;;4896268;29;20060;-80
2022/12/28 03:54:43;;;;;;;3.00;0.50;;;7.70;99.90;;;;;;4888762;29;20059;-80
2022/12/28 03:57:09;;;;;;;2.20;0.55;;;7.70;99.90;;;;;;4892670;29;20135;-80
2022/12/28 03:59:36;;;;;;;3.22;0.50;;;7.70;99.90;;;;;;4889670;29;20056;-80
2022/12/28 04:02:03;;;;;;;2.00;0.70;;;7.60;99.90;;;;;;4892753;29;20412;-80
2022/12/28 04:04:30;;;;;;;2.53;0.65;;;7.60;99.90;;;;;;4888738;29;20132;-81
2022/12/28 04:06:56;;;;;;;0.60;0.60;;;7.60;99.90;;;;;;4893360;29;20054;-80
2022/12/28 04:09:23;;;;;;;2.30;0.90;;;7.60;99.90;;;;;;4898829;29;20048;-79
2022/12/28 04:11:49;;;;;;;2.95;0.70;;;7.50;99.90;;;;;;4898952;29;20143;-80
2022/12/28 04:14:16;;;;;;;1.75;0.63;;;7.50;99.90;;;;;;4890701;29;20060;-80
2022/12/28 04:16:43;;;;;;;1.05;0.50;;;7.50;99.90;;;;;;4887223;29;20052;-80
2022/12/28 04:19:09;;;;;;;1.92;0.60;;;7.50;99.90;;;;;;4890564;29;20061;-79
2022/12/28 04:21:36;;;;;;;0.63;0.60;;;7.50;99.90;;;;;;4889829;29;20048;-80
2022/12/28 04:24:03;;;;;;;3.67;0.60;;;7.50;99.90;;;;;;4883466;29;20492;-81
2022/12/28 04:26:29;;;;;;;1.02;0.38;;;7.50;99.90;;;;;;4902303;29;20120;-83
2022/12/28 04:29:00;;;;;;;1.55;0.50;;;7.50;99.90;;;;;;4905537;29;20037;-83
2022/12/28 04:31:28;;;;;;;3.17;0.60;;;7.50;99.90;;;;;;4928873;29;20041;-82
2022/12/28 04:33:57;;;;;;;2.33;0.60;;;7.40;99.90;;;;;;4917955;29;20062;-82
2022/12/28 04:36:23;;;;;;;3.78;1.00;;;7.40;99.90;;;;;;4911220;29;20136;-81
2022/12/28 04:38:50;;;;;;;7.00;1.20;;;7.50;99.90;;;;;;4896910;29;20060;-82
2022/12/28 04:41:17;;;;;;;0.88;0.40;;;7.50;99.90;;;;;;4900712;29;20048;-81
2022/12/28 04:43:44;;;;;;;2.10;0.60;;;7.40;99.90;;;;;;4892947;29;20045;-80
2022/12/28 04:46:17;;;;;;;1.65;0.50;;;7.40;99.90;;;;;;4890777;29;20059;-81
2022/12/28 04:48:44;;;;;;;3.17;0.88;;;7.40;99.90;;;;;;4910397;29;20049;-80
2022/12/28 04:51:23;;;;;;;1.00;0.60;;;7.40;99.90;;;;;;4893650;29;20052;-82
2022/12/28 04:53:51;;;;;;;1.08;0.60;;;7.40;99.90;;;;;;4891894;29;20056;-81
2022/12/28 04:56:20;;;;;;;2.90;0.73;;;7.40;99.90;;;;;;4894397;29;20512;-82
2022/12/28 04:58:47;;;;;;;1.13;0.60;;;7.30;99.90;;;;;;4896033;29;20407;-81
2022/12/28 05:01:16;;;;;;;0.85;0.60;;;7.30;99.90;;;;;;4888781;29;20048;-81
2022/12/28 05:03:45;;;;;;;3.47;0.70;;;7.30;99.90;;;;;;4896242;29;20056;-81
2022/12/28 05:06:22;;;;;;;3.63;0.70;;;7.30;99.90;;;;;;4901834;29;20052;-81
2022/12/28 05:08:49;;;;;;;2.90;0.80;;;7.30;99.90;;;;;;4896678;29;20053;-80
2022/12/28 05:11:19;;;;;;;2.65;0.68;;;7.30;99.90;;;;;;4889027;29;20049;-81
2022/12/28 05:13:46;;;;;;;1.38;0.68;;;7.40;99.90;;;;;;4899878;29;20048;-82
2022/12/28 05:16:16;;;;;;;2.05;0.70;;;7.30;99.90;;;;;;4890231;29;20531;-81
2022/12/28 05:18:45;;;;;;;1.42;0.43;;;7.40;99.90;;;;;;4892246;29;20060;-80
2022/12/28 05:21:14;;;;;;;1.42;0.73;;;7.30;99.90;;;;;;4890129;29;20112;-81
2022/12/28 05:23:41;;;;;;;0.98;0.50;;;7.30;99.90;;;;;;4900296;29;20057;-82
2022/12/28 05:26:10;;;;;;;0.88;0.55;;;7.30;99.90;;;;;;4890497;29;20053;-81
2022/12/28 05:28:37;;;;;;;1.60;0.55;;;7.30;99.90;;;;;;4895378;29;20419;-81
2022/12/28 05:31:09;;;;;;;1.23;0.70;;;7.30;99.90;;;;;;4890098;29;20060;-80
2022/12/28 05:33:36;;;;;;;4.70;0.70;;;7.20;99.90;;;;;;4895964;29;20049;-81
2022/12/28 05:36:08;;;;;;;1.17;0.70;;;7.30;99.90;;;;;;4891565;29;20049;-81
2022/12/28 05:38:36;;;;;;;3.22;0.60;;;7.20;99.90;;;;;;4893067;29;20063;-81
2022/12/28 05:41:30;;;;;;;3.55;0.60;;;7.20;99.90;;;;;;4891460;29;20092;-81
2022/12/28 05:43:58;;;;;;;0.55;0.40;;;7.20;99.90;;;;;;4893401;29;20112;-81
2022/12/28 05:46:32;;;;;;;1.08;0.63;;;7.20;99.90;;;;;;4890077;29;20048;-81
2022/12/28 05:49:00;;;;;;;0.77;0.63;;;7.20;99.90;;;;;;4896332;29;20049;-81
2022/12/28 05:51:29;;;;;;;2.67;0.63;;;7.20;99.90;;;;;;4899059;29;20055;-82
2022/12/28 05:53:58;;;;;;;0.52;0.47;;;7.20;99.90;;;;;;4890645;29;20514;-81
2022/12/28 05:56:28;;;;;;;0.85;0.60;;;7.20;99.90;;;;;;4894860;29;20059;-81
2022/12/28 05:58:57;;;;;;;0.75;0.50;;;7.20;99.90;;;;;;4893952;29;20052;-82
2022/12/28 06:01:27;;;;;;;1.40;0.60;;;7.20;99.90;;;;;;4889326;29;20052;-81
2022/12/28 06:03:57;;;;;;;0.93;0.60;;;7.20;99.90;;;;;;4890906;29;20045;-82
2022/12/28 06:06:24;;;;;;;3.30;0.50;;;7.30;99.90;;;;;;4890963;29;20427;-81
2022/12/28 06:08:51;;;;;;;0.73;0.60;;;7.30;99.90;;;;;;4900342;29;20045;-82
2022/12/28 06:11:20;;;;;;;1.50;0.63;;;7.40;99.90;;;;;;4894352;29;20053;-81
2022/12/28 06:13:47;;;;;;;5.63;1.38;;;7.30;99.90;;;;;;4900223;29;20144;-81
2022/12/28 06:16:28;;;;;;;2.63;0.60;;;7.40;99.90;;;;;;4891017;29;20080;-81
2022/12/28 06:18:55;;;;;;;3.20;0.57;;;7.40;99.90;;;;;;4891707;29;20447;-81
2022/12/28 06:21:27;;;;;;;2.35;0.60;;;7.40;99.90;;;;;;4891836;29;20131;-81
2022/12/28 06:23:56;;;;;;;1.65;0.60;;;7.40;99.90;;;;;;4892625;29;20048;-82
2022/12/28 06:26:23;;;;;;;1.67;0.60;;;7.50;99.90;;;;;;4891732;29;20144;-80
2022/12/28 06:28:50;;;;;;;1.40;0.40;;;7.40;99.90;;;;;;4889628;29;20059;-81
2022/12/28 06:31:22;;;;;;;5.85;0.55;;;7.50;99.90;;;;;;4894004;29;20088;-80
2022/12/28 06:33:53;;;;;;;1.35;0.50;;;7.40;99.90;;;;;;4890038;29;20100;-80
2022/12/28 06:36:21;;;;;;;1.48;0.50;;;7.40;99.90;;;;;;4891061;29;20068;-81
2022/12/28 06:38:49;;;;;;;2.22;0.60;;;7.40;99.90;;;;;;4890493;29;20419;-82
2022/12/28 06:41:18;;;;;;;1.77;0.70;;;7.50;99.90;;;;;;4892607;29;20053;-82
2022/12/28 06:43:45;;;;;;;2.97;0.85;;;7.50;99.90;;;;;;4887934;29;20163;-82
2022/12/28 06:46:14;;;;;;;1.20;0.90;;;7.50;99.90;;;;;;4893339;29;20462;-82
2022/12/28 06:48:41;;;;;;;2.25;0.60;;;7.60;99.90;;;;;;4892573;29;20045;-81
2022/12/28 06:51:15;;;;;;;2.35;0.68;;;7.60;99.90;;;;;;4901173;29;20113;-80
2022/12/28 06:53:43;;;;;;;1.20;0.60;;;7.60;99.90;;;;;;4890598;29;20055;-81
2022/12/28 06:56:12;;;;;;;1.63;0.60;;;7.60;99.90;;;;;;4899410;29;20059;-81
2022/12/28 06:58:40;;;;;;;2.60;0.80;;;7.60;99.90;;;;;;4887525;29;20076;-82
2022/12/28 07:01:17;;;;;;;2.10;0.75;;;7.70;99.90;;;;;;4899081;29;20128;-81
2022/12/28 07:03:46;;;;;;;1.40;0.65;;;7.70;99.90;;;;;;4888252;29;20056;-83
2022/12/28 07:06:15;;;;;;;3.72;0.75;;;7.70;99.90;;;;;;4900304;29;20104;-80
2022/12/28 07:08:42;;;;;;;2.80;1.00;;;7.70;99.90;;;;;;4909773;29;20105;-80
2022/12/28 07:11:12;;;;;;;2.60;1.23;;;7.80;99.90;;;;;;4907221;29;20075;-81
2022/12/28 07:13:39;;;;;;;3.45;0.77;;;7.80;99.90;;;;;;4895204;29;20053;-82
2022/12/28 07:16:12;;;;;;;2.35;0.95;;;7.80;99.90;;;;;;4893580;29;20079;-82
2022/12/28 07:18:40;;;;;;;1.88;0.73;;;7.80;99.90;;;;;;4887637;29;20057;-82
2022/12/28 07:21:13;;;;;;;1.60;0.80;;;7.80;99.90;;;;;;4895045;29;20547;-82
2022/12/28 07:23:40;;;;;;;3.45;0.70;;;7.90;99.90;;;;;;4891013;29;20053;-81
2022/12/28 07:26:11;;;;;;;1.65;0.50;;;7.90;99.90;;;;;;4895290;29;20045;-81
2022/12/28 07:28:40;;;;;;;2.50;0.50;;;7.90;99.90;;;;;;4892949;29;20053;-81
2022/12/28 07:31:09;;;;;;;2.50;0.77;;;7.90;99.90;;;;;;4892936;29;20087;-82
2022/12/28 07:33:37;;;;;;;2.15;0.57;;;8.00;99.90;;;;;;4903061;29;20058;-82
2022/12/28 07:36:06;;;;;;;0.77;0.70;;;8.00;99.90;;;;;;4902746;29;20055;-82
2022/12/28 07:38:33;;;;;;;1.17;0.65;;;8.00;99.90;;;;;;4891551;29;20053;-82
2022/12/28 07:41:10;;;;;;;1.85;0.80;;;8.00;99.90;;;;;;4898724;29;20080;-82
2022/12/28 07:43:36;;;;;;;3.30;1.48;;;8.00;99.90;;;;;;4901703;29;20595;-81
2022/12/28 07:46:06;;;;;;;1.25;0.68;;;8.00;99.90;;;;;;4895640;29;20059;-80
2022/12/28 07:48:34;;;;;;;4.20;0.70;;;8.00;99.90;;;;;;4894649;29;20044;-81
2022/12/28 07:51:07;;;;;;;2.58;0.70;;;8.00;99.90;;;;;;4903804;29;20400;-81
2022/12/28 07:53:33;;;;;;;1.27;0.55;;;8.00;99.90;;;;;;4885883;29;20522;-81
2022/12/28 07:56:00;;;;;;;1.23;0.70;;;8.10;99.90;;;;;;4887349;29;20065;-83
2022/12/28 07:58:27;;;;;;;4.65;0.98;;;8.10;99.90;;;;;;4890518;29;20052;-82
2022/12/28 08:01:01;;;;;;;2.83;0.93;;;8.10;99.90;;;;;;4895864;29;20053;-82
2022/12/28 08:03:28;;;;;;;3.22;0.80;;;8.10;99.90;;;;;;4895331;29;20574;-81
2022/12/28 08:05:55;;;;;;;3.05;0.70;;;8.20;99.90;;;;;;4897888;29;20071;-82
2022/12/28 08:08:21;;;;;;;1.27;0.65;;;8.20;99.90;;;;;;4895287;29;20045;-82
2022/12/28 08:10:48;;;;;;;1.55;0.70;;;8.20;99.90;;;;;;4889122;29;20057;-81
2022/12/28 08:13:15;;;;;;;1.10;0.70;;;8.20;99.90;;;;;;4896128;29;20045;-82
2022/12/28 08:15:42;;;;;;;1.83;1.00;;;8.40;99.90;;;;;;4902753;29;20056;-82
2022/12/28 08:18:08;;;;;;;1.52;0.93;;;8.30;99.90;;;;;;4893369;29;20428;-82
2022/12/28 08:20:36;;;;;;;1.52;0.95;;;8.40;99.90;;;;;;4893895;29;20056;-82
2022/12/28 08:23:03;;;;;;;0.55;0.40;;;8.40;99.90;;;;;;4893853;29;20052;-82
2022/12/28 08:25:30;;;;;;;0.80;0.60;;;8.40;99.90;;;;;;4890801;29;20071;-81
2022/12/28 08:27:56;;;;;;;1.25;0.55;;;8.50;99.90;;;;;;4896490;29;20045;-82
2022/12/28 08:30:23;;;;;;;2.08;0.60;;;8.50;99.90;;;;;;4889098;29;20113;-80
2022/12/28 08:32:50;;;;;;;1.13;0.50;;;8.50;99.90;;;;;;4898651;29;20053;-82
2022/12/28 08:35:16;;;;;;;0.52;0.45;;;8.60;99.90;;;;;;4888858;29;20049;-82
2022/12/28 08:37:43;;;;;;;2.63;0.70;;;8.60;99.90;;;;;;4897762;29;20071;-80
2022/12/28 08:40:10;;;;;;;1.45;0.50;;;8.70;99.90;;;;;;4889693;29;20079;-82
2022/12/28 08:42:37;;;;;;;0.88;0.60;;;8.70;99.90;;;;;;4892278;29;20061;-82
2022/12/28 08:45:04;;;;;;;1.27;0.77;;;8.80;99.90;;;;;;4891075;29;20056;-82
2022/12/28 08:47:31;;;;;;;1.35;0.70;;;8.80;99.90;;;;;;4897065;29;20109;-81
2022/12/28 08:49:58;;;;;;;2.00;0.60;;;8.90;99.90;;;;;;4901429;29;20058;-81
2022/12/28 08:52:24;;;;;;;2.85;0.80;;;8.90;99.90;;;;;;4883470;29;20049;-80
2022/12/28 08:54:51;;;;;;;0.90;0.40;;;9.00;99.90;;;;;;4886519;29;20067;-80
2022/12/28 08:57:18;;;;;;;1.05;0.40;;;9.00;99.90;;;;;;4894591;29;20056;-81
2022/12/28 08:59:44;;;;;;;1.40;0.40;;;9.10;99.90;;;;;;4889411;29;20057;-80
2022/12/28 09:02:12;;;;;;;3.97;0.50;;;9.10;99.90;;;;;;4896802;29;20057;-80
2022/12/28 09:04:39;;;;;;;0.95;0.40;;;9.10;99.90;;;;;;4893051;29;20092;-81
2022/12/28 09:07:06;;;;;;;5.68;0.50;;;9.20;99.90;;;;;;4895925;29;20055;-80
2022/12/28 09:09:33;;;;;;;3.72;1.15;;;9.10;99.90;;;;;;4889341;29;20072;-80
2022/12/28 09:12:00;;;;;;;0.77;0.40;;;9.20;99.90;;;;;;4891707;29;20079;-80
2022/12/28 09:14:27;;;;;;;1.38;0.55;;;9.20;99.90;;;;;;4889536;29;20072;-80
2022/12/28 09:16:53;;;;;;;1.40;0.60;;;9.20;99.90;;;;;;4888131;29;20053;-79
2022/12/28 09:19:21;;;;;;;1.10;0.52;;;9.20;99.90;;;;;;4888239;29;20452;-81
2022/12/28 09:21:51;;;;;;;1.83;0.55;;;9.20;99.90;;;;;;4896888;29;20096;-82
2022/12/28 09:24:18;;;;;;;2.95;0.57;;;9.30;99.90;;;;;;4928176;29;20032;-83
2022/12/28 09:26:45;;;;;;;0.55;0.35;;;9.30;99.90;;;;;;4912999;29;20052;-83
2022/12/28 09:29:12;;;;;;;0.98;0.55;;;9.30;99.90;;;;;;4914151;29;20092;-83
2022/12/28 09:31:40;;;;;;;0.70;0.70;;;9.40;99.90;;;;;;4915230;29;20041;-83
2022/12/28 09:34:10;;;;;;;2.20;0.88;;;9.40;99.90;;;;;;4893830;29;20144;-81
2022/12/28 09:36:57;;;;;;;1.38;0.50;;;9.40;99.90;;;;;;4891525;29;20049;-81
2022/12/28 09:39:24;;;;;;;0.65;0.40;;;9.50;99.90;;;;;;4897221;29;20064;-82
2022/12/28 09:42:01;;;;;;;1.52;0.57;;;9.50;99.90;;;;;;4897751;29;20079;-79
2022/12/28 09:44:44;;;;;;;1.40;0.50;;;9.50;99.90;;;;;;4892881;29;20056;-82
2022/12/28 09:47:44;;;;;;;0.95;0.60;;;9.60;99.90;;;;;;4898198;29;20507;-82
2022/12/28 09:50:17;;;;;;;1.77;0.80;;;9.60;99.90;;;;;;4889588;29;20081;-82
2022/12/28 09:53:02;;;;;;;2.72;0.50;;;9.60;99.90;;;;;;4898736;29;20057;-81
2022/12/28 09:55:31;;;;;;;2.50;0.50;;;9.70;99.90;;;;;;4900284;29;20092;-82
2022/12/28 09:57:59;;;;;;;2.30;0.45;;;9.80;99.90;;;;;;4895301;29;20048;-81
2022/12/28 10:00:37;;;;;;;1.42;0.57;;;9.80;99.90;;;;;;4885999;29;20478;-82
2022/12/28 10:03:30;;;;;;;3.25;1.00;;;9.90;99.90;;;;;;4884603;29;20053;-82
2022/12/28 10:05:58;;;;;;;1.13;0.60;;;9.90;99.90;;;;;;4893567;29;20071;-82
2022/12/28 10:08:26;;;;;;;2.15;0.75;;;10.00;99.90;;;;;;4894393;29;20051;-82
2022/12/28 10:10:58;;;;;;;2.50;0.70;;;10.10;99.90;;;;;;4891951;29;20056;-82
2022/12/28 10:13:32;;;;;;;2.28;1.00;;;10.10;99.90;;;;;;4884241;29;20053;-82
2022/12/28 10:16:19;;;;;;;2.30;0.60;;;10.20;99.90;;;;;;4892602;29;20052;-82
2022/12/28 10:18:47;;;;;;;2.42;0.93;;;10.30;99.90;;;;;;4898904;29;20143;-83
2022/12/28 10:21:17;;;;;;;1.10;0.70;;;10.30;99.90;;;;;;4891069;29;20067;-81
2022/12/28 10:23:46;;;;;;;1.48;0.70;;;10.30;99.90;;;;;;4893238;29;20048;-82
2022/12/28 10:26:34;;;;;;;2.80;0.80;;;10.40;99.90;;;;;;4889924;29;20053;-81
2022/12/28 10:29:01;;;;;;;1.15;0.60;;;10.40;99.90;;;;;;4894489;29;20076;-81
2022/12/28 10:31:35;;;;;;;1.25;0.80;;;10.40;99.90;;;;;;4890125;29;20045;-82
2022/12/28 10:34:14;;;;;;;2.20;1.10;;;10.40;99.90;;;;;;4896647;29;20061;-82
2022/12/28 10:36:43;;;;;;;2.17;0.85;;;10.50;99.90;;;;;;4893963;29;20100;-82
2022/12/28 10:39:22;;;;;;;1.48;0.60;;;10.50;99.90;;;;;;4892205;29;20548;-81
2022/12/28 10:41:50;;;;;;;1.45;0.45;;;10.50;99.90;;;;;;4899547;29;20063;-82
2022/12/28 10:44:37;;;;;;;3.50;0.70;;;10.50;99.90;;;;;;4893413;29;20177;-82
2022/12/28 10:47:26;;;;;;;1.33;0.55;;;10.50;99.90;;;;;;4889699;29;20526;-82
2022/12/28 10:49:53;;;;;;;2.95;0.85;;;10.50;99.90;;;;;;4900546;29;20051;-82
2022/12/28 10:52:40;;;;;;;1.05;0.52;;;10.50;99.90;;;;;;4890946;29;20175;-82
2022/12/28 10:55:26;;;;;;;0.85;0.57;;;10.60;99.90;;;;;;4897383;29;20091;-82
2022/12/28 10:57:53;;;;;;;0.90;0.70;;;10.60;99.90;;;;;;4899126;29;20426;-82
2022/12/28 11:00:40;;;;;;;1.30;0.80;;;10.60;99.90;;;;;;4894401;29;20125;-82
2022/12/28 11:03:17;;;;;;;1.42;0.60;;;10.60;99.90;;;;;;4888073;29;20057;-83
2022/12/28 11:05:44;;;;;;;2.55;0.43;;;10.70;99.90;;;;;;4883800;29;20053;-83
2022/12/28 11:08:15;;;;;;;1.48;0.85;;;10.60;99.90;;;;;;4883041;29;20498;-81
2022/12/28 11:10:41;;;;;;;1.02;0.70;;;10.60;99.90;;;;;;4890653;29;20422;-82
2022/12/28 11:13:18;;;;;;;1.17;0.73;;;10.60;99.90;;;;;;4899560;29;20470;-82
2022/12/28 11:15:47;;;;;;;3.17;1.00;;;10.50;99.90;;;;;;4894663;29;20067;-82
2022/12/28 11:18:16;;;;;;;0.90;0.60;;;10.50;99.90;;;;;;4887444;29;20104;-81
2022/12/28 11:20:53;;;;;;;0.77;0.50;;;10.40;99.90;;;;;;4895740;29;20057;-82
2022/12/28 11:23:25;;;;;;;2.25;0.93;;;10.40;99.90;;;;;;4898226;29;20537;-81
2022/12/28 11:25:52;;;;;;;1.17;0.60;;;10.30;99.90;;;;;;4891868;29;20735;-81
2022/12/28 11:28:21;;;;;;;3.40;0.80;;;10.30;99.90;;;;;;4885987;29;20049;-80
2022/12/28 11:30:50;;;;;;;1.50;0.80;;;10.30;99.90;;;;;;4895211;29;20052;-82
2022/12/28 11:33:22;;;;;;;1.73;0.85;;;10.30;99.90;;;;;;4888373;29;20146;-82
2022/12/28 11:35:53;;;;;;;3.20;1.23;;;10.20;99.90;;;;;;4891866;29;20060;-82
2022/12/28 11:38:46;;;;;;;2.55;1.17;;;10.20;99.90;;;;;;4897808;29;20084;-82
2022/12/28 11:41:26;;;;;;;2.78;0.77;;;10.20;99.90;;;;;;4893765;29;20140;-82
2022/12/28 11:44:03;;;;;;;3.25;0.88;;;10.20;99.90;;;;;;4891914;29;20122;-82
2022/12/28 11:46:29;;;;;;;;;;;10.20;99.90;;;;;;4890674;29;20057;-82
2022/12/28 11:48:59;;;;;;;0.80;0.52;;;10.20;99.90;;;;;;4889049;29;19934;-82
2022/12/28 11:51:28;;;;;;;1.00;0.60;;;10.30;99.90;;;;;;4899887;29;20041;-80
2022/12/28 11:54:00;;;;;;;1.05;0.63;;;10.30;99.90;;;;;;4901039;29;20108;-81
2022/12/28 11:56:45;;;;;;;2.15;0.70;;;10.30;99.90;;;;;;4907596;29;20052;-81
2022/12/28 11:59:23;;;;;;;0.68;0.65;;;10.40;99.90;;;;;;4905485;29;20491;-81
2022/12/28 12:02:01;;;;;;;1.77;0.63;;;10.40;99.90;;;;;;4887534;29;20063;-82
2022/12/28 12:04:33;;;;;;;0.55;0.43;;;10.40;99.90;;;;;;4887947;29;20167;-81
2022/12/28 12:07:00;;;;;;;2.05;0.75;;;10.50;99.90;;;;;;4891277;29;20503;-81
2022/12/28 12:09:31;;;;;;;0.50;0.43;;;10.50;99.90;;;;;;4889927;29;20052;-82
2022/12/28 12:12:22;;;;;;;1.25;0.73;;;10.60;99.90;;;;;;4897884;29;20056;-81
2022/12/28 12:15:09;;;;;;;1.98;1.00;;;10.70;99.90;;;;;;4892740;29;20159;-82
2022/12/28 12:17:47;;;;;;;2.20;0.77;;;10.70;99.90;;;;;;4895284;29;20045;-82
2022/12/28 12:20:52;;;;;;;1.70;0.70;;;10.80;99.90;;;;;;4888578;29;20048;-83
2022/12/28 12:23:47;;;;;;;1.75;1.00;;;10.80;99.90;;;;;;4893114;29;20052;-83
2022/12/28 12:26:34;;;;;;;1.30;0.70;;;10.90;99.90;;;;;;4898027;29;20057;-82
2022/12/28 12:29:13;;;;;;;1.40;0.60;;;10.90;99.90;;;;;;4915394;29;20049;-82
2022/12/28 12:31:56;;;;;;;1.58;0.80;;;10.80;99.90;;;;;;4901255;29;20076;-82
2022/12/28 12:34:40;;;;;;;1.13;0.68;;;10.90;99.90;;;;;;4889253;29;20546;-83
2022/12/28 12:37:38;;;;;;;0.73;0.50;;;10.80;99.90;;;;;;4898601;29;20048;-82
2022/12/28 12:40:08;;;;;;;2.30;0.85;;;10.80;99.90;;;;;;4879148;29;20136;-82
2022/12/28 12:43:02;;;;;;;2.47;0.90;;;10.70;99.90;;;;;;4897639;29;20053;-83
2022/12/28 12:45:38;;;;;;;1.15;0.95;;;10.70;99.90;;;;;;4887001;29;20136;-81
2022/12/28 12:48:31;;;;;;;3.72;0.80;;;10.60;99.90;;;;;;4910210;29;20049;-83
2022/12/28 12:51:39;;;;;;;1.15;0.60;;;10.60;99.90;;;;;;4900157;29;20423;-82
2022/12/28 12:54:20;;;;;;;3.50;0.60;;;10.50;99.90;;;;;;4902636;29;20055;-82
2022/12/28 12:56:58;;;;;;;2.67;0.80;;;10.50;99.90;;;;;;4915979;29;20066;-83
2022/12/28 12:59:46;;;;;;;3.05;1.08;;;10.50;99.90;;;;;;4895478;29;20251;-82
2022/12/28 13:02:59;;;;;;;2.00;0.93;;;10.40;99.90;;;;;;4891057;29;20076;-83
2022/12/28 13:05:28;;;;;;;2.38;1.00;;;10.40;99.90;;;;;;4907248;29;20081;-82
2022/12/28 13:07:57;;;;;;;2.38;0.93;;;10.50;99.90;;;;;;4902133;29;20529;-80
2022/12/28 13:10:36;;;;;;;4.80;0.80;;;10.50;99.90;;;;;;4890094;29;20076;-82
2022/12/28 13:13:04;;;;;;;3.28;0.80;;;10.40;99.90;;;;;;4897177;29;20116;-83
2022/12/28 13:15:31;;;;;;;1.17;0.82;;;10.40;99.90;;;;;;4890584;29;20470;-83
2022/12/28 13:18:22;;;;;;;1.55;0.60;;;10.40;99.90;;;;;;4896113;29;20056;-82
2022/12/28 13:21:19;;;;;;;0.75;0.60;;;10.40;99.90;;;;;;4887449;29;20089;-82
2022/12/28 13:23:45;;;;;;;2.47;0.85;;;10.40;99.90;;;;;;4894132;29;20057;-82
2022/12/28 13:26:14;;;;;;;4.00;1.50;;;10.40;99.90;;;;;;4893855;29;20108;-82
2022/12/28 13:28:54;;;;;;;1.88;1.13;;;10.30;99.90;;;;;;4895616;29;20112;-82
2022/12/28 13:31:46;;;;;;;2.00;1.17;;;10.30;99.90;;;;;;4891901;29;20056;-82
2022/12/28 13:34:18;;;;;;;2.88;0.75;;;10.30;99.90;;;;;;4902079;29;20127;-84
2022/12/28 13:36:48;;;;;;;0.77;0.70;;;10.30;99.90;;;;;;4901223;29;20064;-82
2022/12/28 13:39:17;;;;;;;2.65;0.60;;;10.30;99.90;;;;;;4893813;29;20156;-81
2022/12/28 13:41:56;;;;;;;4.05;0.63;;;10.30;99.90;;;;;;4893755;29;20523;-82
2022/12/28 13:44:31;;;;;;;2.63;0.90;;;10.30;99.90;;;;;;4893710;29;20056;-83
2022/12/28 13:47:08;;;;;;;1.92;0.60;;;10.30;99.90;;;;;;4901246;29;20497;-82
2022/12/28 13:49:40;;;;;;;0.45;0.40;;;10.30;99.90;;;;;;4894081;29;20135;-83